SDM6971 ULLI-UZTT
Flight info
| Callsign | SDM6971 |
|---|---|
| Flight time | 4h 29m |
| Altitude | 35000 |
| Route | SUGIN1B SUGIN T873 NIRGI T73 DESUD P164 ROKUR T784 OTKOL T787 OKSUD T778 TERDI/K0813F370 T778 MOF T750 PODUT M162 MULTA M875 ODILA M199 INKUM L163 MIKNO MIKNO2T |
| Aircraft | A320/M-SDE3FGHIRWY/LB1 |
Departure
| Time | 2026-03-23 09:11 |
|---|---|
| Airport | Pulkovo Airport (ULLI) |
Arrival
| Time | 2026-03-23 13:40 |
|---|---|
| Airport | Tashkent International Airport (UZTT) |
| Time | Latitude | Longitude | Altitude | Speed | Heading |
|---|---|---|---|---|---|
| 2026-03-23 08:57 | 59.80188 | 30.26517 | 85 ft | 0 kts | 286° |
| 2026-03-23 09:02 | 59.80186 | 30.26536 | 89 ft | 2 kts | 286° |
| 2026-03-23 09:03 | 59.80185 | 30.26541 | 89 ft | 0 kts | 286° |
| 2026-03-23 09:06 | 59.80190 | 30.26508 | 94 ft | 3 kts | 286° |
| 2026-03-23 09:06 | 59.80194 | 30.26483 | 87 ft | 1 kts | 286° |
| 2026-03-23 09:06 | 59.80204 | 30.26434 | 87 ft | 12 kts | 305° |
| 2026-03-23 09:06 | 59.80311 | 30.26442 | 85 ft | 14 kts | 18° |
| 2026-03-23 09:07 | 59.80395 | 30.26496 | 86 ft | 12 kts | 18° |
| 2026-03-23 09:07 | 59.80431 | 30.26607 | 86 ft | 10 kts | 92° |
| 2026-03-23 09:07 | 59.80406 | 30.26790 | 85 ft | 21 kts | 106° |
| 2026-03-23 09:07 | 59.80364 | 30.27075 | 85 ft | 22 kts | 107° |
| 2026-03-23 09:08 | 59.80318 | 30.27376 | 85 ft | 23 kts | 107° |
| 2026-03-23 09:08 | 59.80287 | 30.27583 | 88 ft | 24 kts | 106° |
| 2026-03-23 09:08 | 59.80239 | 30.27908 | 85 ft | 25 kts | 107° |
| 2026-03-23 09:08 | 59.80170 | 30.28360 | 85 ft | 27 kts | 107° |
| 2026-03-23 09:09 | 59.80186 | 30.28630 | 79 ft | 18 kts | 48° |
| 2026-03-23 09:09 | 59.80240 | 30.28755 | 79 ft | 17 kts | 49° |
| 2026-03-23 09:09 | 59.80320 | 30.28872 | 79 ft | 12 kts | 336° |
| 2026-03-23 09:09 | 59.80343 | 30.28756 | 77 ft | 9 kts | 283° |
| 2026-03-23 09:10 | 59.80349 | 30.28717 | 77 ft | 0 kts | 286° |
| 2026-03-23 09:10 | 59.80360 | 30.28642 | 82 ft | 28 kts | 287° |
| 2026-03-23 09:10 | 59.80488 | 30.27790 | 88 ft | 97 kts | 287° |
| 2026-03-23 09:10 | 59.80737 | 30.26131 | 86 ft | 150 kts | 287° |
| 2026-03-23 09:11 | 59.81066 | 30.23961 | 399 ft | 164 kts | 285° |
| 2026-03-23 09:11 | 59.81372 | 30.21765 | 918 ft | 168 kts | 284° |
| 2026-03-23 09:11 | 59.81668 | 30.19548 | 1612 ft | 167 kts | 281° |
| 2026-03-23 09:11 | 59.81987 | 30.17269 | 2197 ft | 178 kts | 280° |
| 2026-03-23 09:12 | 59.82354 | 30.14761 | 2551 ft | 201 kts | 283° |
| 2026-03-23 09:12 | 59.82767 | 30.12043 | 3216 ft | 207 kts | 283° |
| 2026-03-23 09:12 | 59.83181 | 30.09268 | 3950 ft | 210 kts | 279° |
| 2026-03-23 09:12 | 59.83165 | 30.06392 | 4686 ft | 210 kts | 252° |
| 2026-03-23 09:13 | 59.82418 | 30.03897 | 5418 ft | 216 kts | 225° |
| 2026-03-23 09:13 | 59.81202 | 30.02100 | 6170 ft | 219 kts | 218° |
| 2026-03-23 09:13 | 59.79855 | 30.00520 | 6664 ft | 239 kts | 202° |
| 2026-03-23 09:13 | 59.78123 | 30.00391 | 7136 ft | 266 kts | 169° |
| 2026-03-23 09:14 | 59.76484 | 30.02312 | 7815 ft | 283 kts | 145° |
| 2026-03-23 09:14 | 59.75036 | 30.04944 | 8594 ft | 287 kts | 142° |
| 2026-03-23 09:14 | 59.73612 | 30.07760 | 9376 ft | 290 kts | 140° |
| 2026-03-23 09:14 | 59.72194 | 30.10634 | 10131 ft | 292 kts | 140° |
| 2026-03-23 09:15 | 59.70872 | 30.13900 | 10423 ft | 320 kts | 126° |
| 2026-03-23 09:15 | 59.69938 | 30.18116 | 10602 ft | 347 kts | 110° |
| 2026-03-23 09:15 | 59.69543 | 30.22932 | 11128 ft | 361 kts | 96° |
| 2026-03-23 09:15 | 59.69483 | 30.27939 | 11793 ft | 365 kts | 95° |
| 2026-03-23 09:16 | 59.69387 | 30.32979 | 12479 ft | 366 kts | 99° |
| 2026-03-23 09:16 | 59.68959 | 30.37932 | 13148 ft | 365 kts | 107° |
| 2026-03-23 09:16 | 59.68421 | 30.42793 | 13830 ft | 367 kts | 108° |
| 2026-03-23 09:16 | 59.67879 | 30.47758 | 14419 ft | 370 kts | 108° |
| 2026-03-23 09:17 | 59.67338 | 30.52763 | 15008 ft | 373 kts | 108° |
| 2026-03-23 09:17 | 59.66794 | 30.57809 | 15584 ft | 376 kts | 108° |
| 2026-03-23 09:17 | 59.66246 | 30.62903 | 16157 ft | 379 kts | 108° |
| 2026-03-23 09:17 | 59.65697 | 30.68017 | 16735 ft | 381 kts | 108° |
| 2026-03-23 09:18 | 59.65180 | 30.73117 | 17293 ft | 385 kts | 107° |
| 2026-03-23 09:18 | 59.64723 | 30.78370 | 17857 ft | 389 kts | 105° |
| 2026-03-23 09:18 | 59.64305 | 30.83682 | 18369 ft | 393 kts | 104° |
| 2026-03-23 09:18 | 59.63896 | 30.89042 | 18868 ft | 395 kts | 104° |
| 2026-03-23 09:19 | 59.63480 | 30.94430 | 19371 ft | 397 kts | 104° |
| 2026-03-23 09:19 | 59.63047 | 30.99844 | 19885 ft | 399 kts | 105° |
| 2026-03-23 09:19 | 59.62596 | 31.05286 | 20397 ft | 401 kts | 105° |
| 2026-03-23 09:19 | 59.62135 | 31.10731 | 20910 ft | 403 kts | 105° |
| 2026-03-23 09:20 | 59.61671 | 31.16136 | 21411 ft | 405 kts | 105° |
| 2026-03-23 09:20 | 59.61196 | 31.21639 | 21921 ft | 407 kts | 105° |
| 2026-03-23 09:20 | 59.60718 | 31.27165 | 22414 ft | 409 kts | 106° |
| 2026-03-23 09:20 | 59.60236 | 31.32723 | 22887 ft | 411 kts | 106° |
| 2026-03-23 09:21 | 59.59749 | 31.38299 | 23350 ft | 413 kts | 106° |
| 2026-03-23 09:21 | 59.59255 | 31.43902 | 23768 ft | 415 kts | 106° |
| 2026-03-23 09:21 | 59.58758 | 31.49528 | 24144 ft | 417 kts | 106° |
| 2026-03-23 09:21 | 59.58257 | 31.55188 | 24481 ft | 419 kts | 105° |
| 2026-03-23 09:22 | 59.57753 | 31.60870 | 24824 ft | 421 kts | 105° |
| 2026-03-23 09:22 | 59.57245 | 31.66580 | 25156 ft | 424 kts | 105° |
| 2026-03-23 09:22 | 59.56736 | 31.72260 | 25442 ft | 427 kts | 105° |
| 2026-03-23 09:22 | 59.56216 | 31.78040 | 25753 ft | 429 kts | 105° |
| 2026-03-23 09:23 | 59.55688 | 31.83863 | 26075 ft | 431 kts | 105° |
| 2026-03-23 09:23 | 59.55154 | 31.89699 | 26392 ft | 434 kts | 105° |
| 2026-03-23 09:23 | 59.54614 | 31.95568 | 26705 ft | 436 kts | 105° |
| 2026-03-23 09:23 | 59.54059 | 32.01462 | 27017 ft | 436 kts | 108° |
| 2026-03-23 09:24 | 59.53170 | 32.07154 | 27318 ft | 431 kts | 118° |
| 2026-03-23 09:24 | 59.51845 | 32.12326 | 27597 ft | 426 kts | 128° |
| 2026-03-23 09:24 | 59.50095 | 32.16992 | 27861 ft | 421 kts | 137° |
| 2026-03-23 09:24 | 59.48051 | 32.21101 | 28147 ft | 420 kts | 140° |
| 2026-03-23 09:25 | 59.45969 | 32.25156 | 28444 ft | 422 kts | 140° |
| 2026-03-23 09:25 | 59.43878 | 32.29232 | 28727 ft | 423 kts | 140° |
| 2026-03-23 09:25 | 59.41808 | 32.33261 | 28998 ft | 425 kts | 140° |
| 2026-03-23 09:25 | 59.39706 | 32.37354 | 29270 ft | 427 kts | 140° |
| 2026-03-23 09:26 | 59.37595 | 32.41459 | 29525 ft | 428 kts | 140° |
| 2026-03-23 09:26 | 59.35469 | 32.45584 | 29784 ft | 430 kts | 140° |
| 2026-03-23 09:26 | 59.33338 | 32.49713 | 30034 ft | 431 kts | 140° |
| 2026-03-23 09:27 | 59.29058 | 32.57976 | 30474 ft | 433 kts | 140° |
| 2026-03-23 09:27 | 59.26903 | 32.62116 | 30684 ft | 433 kts | 140° |
| 2026-03-23 09:27 | 59.24761 | 32.66230 | 31002 ft | 430 kts | 140° |
| 2026-03-23 09:27 | 59.22655 | 32.70269 | 31280 ft | 429 kts | 140° |
| 2026-03-23 09:28 | 59.20527 | 32.74343 | 31537 ft | 429 kts | 140° |
| 2026-03-23 09:28 | 59.18394 | 32.78419 | 31796 ft | 428 kts | 140° |
| 2026-03-23 09:28 | 59.16262 | 32.82478 | 32046 ft | 428 kts | 140° |
| 2026-03-23 09:28 | 59.14129 | 32.86532 | 32293 ft | 428 kts | 140° |
| 2026-03-23 09:29 | 59.11991 | 32.90591 | 32553 ft | 428 kts | 140° |
| 2026-03-23 09:29 | 59.09861 | 32.94631 | 32791 ft | 427 kts | 140° |
| 2026-03-23 09:29 | 59.07732 | 32.98656 | 33036 ft | 427 kts | 140° |
| 2026-03-23 09:29 | 59.05623 | 33.02632 | 33279 ft | 427 kts | 140° |
| 2026-03-23 09:30 | 59.03489 | 33.06654 | 33528 ft | 426 kts | 140° |
| 2026-03-23 09:30 | 59.01353 | 33.10664 | 33777 ft | 426 kts | 140° |
| 2026-03-23 09:30 | 58.99222 | 33.14660 | 34026 ft | 426 kts | 140° |
| 2026-03-23 09:30 | 58.97088 | 33.18657 | 34246 ft | 426 kts | 140° |
| 2026-03-23 09:31 | 58.94957 | 33.22643 | 34453 ft | 425 kts | 140° |
| 2026-03-23 09:31 | 58.92824 | 33.26627 | 34663 ft | 425 kts | 140° |
| 2026-03-23 09:31 | 58.90722 | 33.30551 | 34857 ft | 425 kts | 140° |
| 2026-03-23 09:31 | 58.88595 | 33.34519 | 35050 ft | 425 kts | 140° |
| 2026-03-23 09:32 | 58.86465 | 33.38489 | 35117 ft | 423 kts | 140° |
| 2026-03-23 09:32 | 58.82227 | 33.46342 | 35119 ft | 421 kts | 140° |
| 2026-03-23 09:33 | 58.77995 | 33.54155 | 35127 ft | 421 kts | 140° |
| 2026-03-23 09:33 | 58.73791 | 33.61893 | 35128 ft | 420 kts | 141° |
| 2026-03-23 09:34 | 58.69543 | 33.69665 | 35129 ft | 420 kts | 141° |
| 2026-03-23 09:34 | 58.65304 | 33.77418 | 35129 ft | 420 kts | 141° |
| 2026-03-23 09:35 | 58.61055 | 33.85159 | 35131 ft | 420 kts | 141° |
| 2026-03-23 09:35 | 58.56832 | 33.92815 | 35133 ft | 419 kts | 141° |
| 2026-03-23 09:36 | 58.52583 | 34.00486 | 35140 ft | 418 kts | 141° |
| 2026-03-23 09:36 | 58.48348 | 34.08104 | 35144 ft | 417 kts | 141° |
| 2026-03-23 09:37 | 58.44141 | 34.15656 | 35143 ft | 417 kts | 141° |
| 2026-03-23 09:37 | 58.39904 | 34.23244 | 35143 ft | 417 kts | 141° |
| 2026-03-23 09:38 | 58.35687 | 34.30747 | 35129 ft | 416 kts | 141° |
| 2026-03-23 09:38 | 58.31451 | 34.38266 | 35143 ft | 415 kts | 141° |
| 2026-03-23 09:39 | 58.27226 | 34.45768 | 35148 ft | 415 kts | 141° |
| 2026-03-23 09:39 | 58.22995 | 34.53233 | 35148 ft | 414 kts | 141° |
| 2026-03-23 09:40 | 58.18736 | 34.60619 | 35147 ft | 413 kts | 143° |
| 2026-03-23 09:40 | 58.14365 | 34.67583 | 35126 ft | 412 kts | 144° |
| 2026-03-23 09:41 | 58.09916 | 34.74449 | 35135 ft | 412 kts | 144° |
| 2026-03-23 09:41 | 58.05494 | 34.81358 | 35135 ft | 412 kts | 144° |
| 2026-03-23 09:42 | 58.01082 | 34.88300 | 35141 ft | 412 kts | 144° |
| 2026-03-23 09:42 | 57.96706 | 34.95192 | 35150 ft | 412 kts | 144° |
| 2026-03-23 09:43 | 57.92289 | 35.02104 | 35150 ft | 412 kts | 144° |
| 2026-03-23 09:43 | 57.87869 | 35.08966 | 35151 ft | 412 kts | 143° |
| 2026-03-23 09:44 | 57.83451 | 35.15817 | 35160 ft | 411 kts | 143° |
| 2026-03-23 09:44 | 57.79039 | 35.22658 | 35165 ft | 411 kts | 143° |
| 2026-03-23 09:45 | 57.74650 | 35.29424 | 35168 ft | 411 kts | 143° |
| 2026-03-23 09:45 | 57.70228 | 35.36200 | 35173 ft | 410 kts | 144° |
| 2026-03-23 09:46 | 57.65808 | 35.42961 | 35151 ft | 410 kts | 143° |
| 2026-03-23 09:46 | 57.61556 | 35.50099 | 35152 ft | 414 kts | 133° |
| 2026-03-23 09:47 | 57.58698 | 35.59287 | 35155 ft | 424 kts | 114° |
| 2026-03-23 09:47 | 57.56685 | 35.69632 | 35158 ft | 424 kts | 114° |
| 2026-03-23 09:48 | 57.54659 | 35.79903 | 35158 ft | 425 kts | 114° |
| 2026-03-23 09:48 | 57.52603 | 35.90222 | 35157 ft | 425 kts | 115° |
| 2026-03-23 09:49 | 57.50525 | 36.00537 | 35159 ft | 425 kts | 114° |
| 2026-03-23 09:49 | 57.48466 | 36.10779 | 35161 ft | 425 kts | 114° |
| 2026-03-23 09:50 | 57.46403 | 36.21083 | 35169 ft | 425 kts | 114° |
| 2026-03-23 09:50 | 57.44339 | 36.31362 | 35161 ft | 425 kts | 114° |
| 2026-03-23 09:51 | 57.42258 | 36.41644 | 35169 ft | 425 kts | 115° |
| 2026-03-23 09:51 | 57.40168 | 36.51914 | 35151 ft | 424 kts | 114° |
| 2026-03-23 09:52 | 57.38070 | 36.62153 | 35158 ft | 424 kts | 115° |
| 2026-03-23 09:52 | 57.36319 | 36.70648 | 35160 ft | 424 kts | 115° |
| 2026-03-23 09:53 | 57.33862 | 36.82528 | 35157 ft | 425 kts | 115° |
| 2026-03-23 09:53 | 57.31732 | 36.92769 | 35156 ft | 426 kts | 115° |
| 2026-03-23 09:54 | 57.29586 | 37.03026 | 35142 ft | 427 kts | 115° |
| 2026-03-23 09:54 | 57.27441 | 37.13271 | 35153 ft | 427 kts | 115° |
| 2026-03-23 09:55 | 57.25647 | 37.21772 | 35158 ft | 427 kts | 115° |
| 2026-03-23 09:55 | 57.23124 | 37.33671 | 35158 ft | 427 kts | 115° |
| 2026-03-23 09:56 | 57.21317 | 37.42156 | 35159 ft | 427 kts | 115° |
| 2026-03-23 09:56 | 57.19132 | 37.52341 | 35160 ft | 427 kts | 115° |
| 2026-03-23 09:57 | 57.16943 | 37.62525 | 35163 ft | 427 kts | 114° |
| 2026-03-23 09:57 | 57.15306 | 37.73116 | 35167 ft | 430 kts | 108° |
| 2026-03-23 09:58 | 57.13773 | 37.83839 | 35364 ft | 433 kts | 109° |
| 2026-03-23 09:58 | 57.12999 | 37.89205 | 35523 ft | 434 kts | 109° |
| 2026-03-23 09:58 | 57.12218 | 37.94578 | 35702 ft | 434 kts | 109° |
| 2026-03-23 09:58 | 57.11435 | 37.99938 | 35868 ft | 434 kts | 109° |
| 2026-03-23 09:59 | 57.10659 | 38.05238 | 36038 ft | 433 kts | 109° |
| 2026-03-23 09:59 | 57.09872 | 38.10607 | 36203 ft | 433 kts | 109° |
| 2026-03-23 09:59 | 57.09086 | 38.15961 | 36366 ft | 433 kts | 109° |
| 2026-03-23 09:59 | 57.08300 | 38.21315 | 36528 ft | 432 kts | 108° |
| 2026-03-23 10:00 | 57.06719 | 38.31983 | 36845 ft | 431 kts | 109° |
| 2026-03-23 10:00 | 57.05935 | 38.37236 | 36999 ft | 431 kts | 109° |
| 2026-03-23 10:00 | 57.05141 | 38.42548 | 37156 ft | 431 kts | 109° |
| 2026-03-23 10:01 | 57.03545 | 38.53176 | 37177 ft | 431 kts | 109° |
| 2026-03-23 10:01 | 57.01939 | 38.63824 | 37178 ft | 431 kts | 109° |
| 2026-03-23 10:02 | 57.00326 | 38.74426 | 37173 ft | 432 kts | 109° |
| 2026-03-23 10:02 | 56.98697 | 38.85041 | 37174 ft | 432 kts | 109° |
| 2026-03-23 10:03 | 56.97070 | 38.95572 | 37177 ft | 432 kts | 109° |
| 2026-03-23 10:03 | 56.95421 | 39.06179 | 37181 ft | 432 kts | 109° |
| 2026-03-23 10:04 | 56.93771 | 39.16769 | 37185 ft | 432 kts | 109° |
| 2026-03-23 10:04 | 56.92129 | 39.27287 | 37185 ft | 432 kts | 109° |
| 2026-03-23 10:05 | 56.90460 | 39.37852 | 37180 ft | 432 kts | 109° |
| 2026-03-23 10:05 | 56.88781 | 39.48408 | 37188 ft | 431 kts | 109° |
| 2026-03-23 10:06 | 56.87098 | 39.58930 | 37193 ft | 431 kts | 109° |
| 2026-03-23 10:06 | 56.85414 | 39.69363 | 37198 ft | 430 kts | 109° |
| 2026-03-23 10:07 | 56.83715 | 39.79858 | 37192 ft | 430 kts | 109° |
| 2026-03-23 10:07 | 56.82004 | 39.90333 | 37195 ft | 430 kts | 109° |
| 2026-03-23 10:08 | 56.80294 | 40.00789 | 37188 ft | 430 kts | 109° |
| 2026-03-23 10:08 | 56.78598 | 40.11186 | 37195 ft | 429 kts | 109° |
| 2026-03-23 10:09 | 56.76881 | 40.21634 | 37197 ft | 429 kts | 109° |
| 2026-03-23 10:09 | 56.75148 | 40.32070 | 37204 ft | 430 kts | 109° |
| 2026-03-23 10:10 | 56.73409 | 40.42436 | 37192 ft | 430 kts | 109° |
| 2026-03-23 10:10 | 56.71647 | 40.52878 | 37190 ft | 431 kts | 109° |
| 2026-03-23 10:11 | 56.69887 | 40.63317 | 37190 ft | 431 kts | 109° |
| 2026-03-23 10:11 | 56.68118 | 40.73744 | 37196 ft | 431 kts | 109° |
| 2026-03-23 10:12 | 56.66351 | 40.84119 | 37200 ft | 431 kts | 109° |
| 2026-03-23 10:12 | 56.64555 | 40.94534 | 37204 ft | 431 kts | 109° |
| 2026-03-23 10:13 | 56.62747 | 41.04941 | 37211 ft | 432 kts | 110° |
| 2026-03-23 10:13 | 56.60082 | 41.14585 | 37206 ft | 426 kts | 128° |
| 2026-03-23 10:14 | 56.56518 | 41.23173 | 37210 ft | 426 kts | 128° |
| 2026-03-23 10:14 | 56.52972 | 41.31722 | 37210 ft | 426 kts | 128° |
| 2026-03-23 10:15 | 56.49402 | 41.40304 | 37209 ft | 426 kts | 128° |
| 2026-03-23 10:15 | 56.45824 | 41.48869 | 37209 ft | 426 kts | 128° |
| 2026-03-23 10:16 | 56.42242 | 41.57404 | 37201 ft | 426 kts | 128° |
| 2026-03-23 10:16 | 56.38679 | 41.65875 | 37202 ft | 426 kts | 128° |
| 2026-03-23 10:17 | 56.35080 | 41.74392 | 37207 ft | 426 kts | 128° |
| 2026-03-23 10:17 | 56.31482 | 41.82884 | 37211 ft | 427 kts | 128° |
| 2026-03-23 10:18 | 56.27875 | 41.91376 | 37217 ft | 427 kts | 128° |
| 2026-03-23 10:18 | 56.24264 | 41.99845 | 37212 ft | 427 kts | 128° |
| 2026-03-23 10:19 | 56.20653 | 42.08243 | 37218 ft | 426 kts | 128° |
| 2026-03-23 10:19 | 56.17161 | 42.16877 | 37221 ft | 427 kts | 124° |
| 2026-03-23 10:20 | 56.13969 | 42.25858 | 37228 ft | 427 kts | 122° |
| 2026-03-23 10:20 | 56.10811 | 42.34878 | 37228 ft | 427 kts | 123° |
| 2026-03-23 10:21 | 56.07572 | 42.43825 | 37225 ft | 427 kts | 123° |
| 2026-03-23 10:21 | 56.04316 | 42.52636 | 37226 ft | 427 kts | 123° |
| 2026-03-23 10:22 | 56.00984 | 42.61421 | 37234 ft | 427 kts | 125° |
| 2026-03-23 10:22 | 55.97575 | 42.70105 | 37234 ft | 427 kts | 125° |
| 2026-03-23 10:23 | 55.94163 | 42.78775 | 37235 ft | 427 kts | 125° |
| 2026-03-23 10:23 | 55.90765 | 42.87449 | 37232 ft | 426 kts | 125° |
| 2026-03-23 10:24 | 55.87375 | 42.96125 | 37231 ft | 426 kts | 125° |
| 2026-03-23 10:24 | 55.83971 | 43.04776 | 37229 ft | 426 kts | 125° |
| 2026-03-23 10:25 | 55.80557 | 43.13410 | 37228 ft | 426 kts | 125° |
| 2026-03-23 10:25 | 55.77476 | 43.22411 | 37226 ft | 426 kts | 120° |
| 2026-03-23 10:26 | 55.74563 | 43.31503 | 37216 ft | 426 kts | 119° |
| 2026-03-23 10:26 | 55.71621 | 43.40636 | 37216 ft | 426 kts | 119° |
| 2026-03-23 10:27 | 55.68668 | 43.49759 | 37221 ft | 427 kts | 120° |
| 2026-03-23 10:27 | 55.65704 | 43.58873 | 37223 ft | 427 kts | 120° |
| 2026-03-23 10:28 | 55.62732 | 43.67979 | 37226 ft | 427 kts | 120° |
| 2026-03-23 10:28 | 55.60154 | 43.77338 | 37226 ft | 426 kts | 106° |
| 2026-03-23 10:29 | 55.59262 | 43.87626 | 37227 ft | 425 kts | 91° |
| 2026-03-23 10:29 | 55.59069 | 43.98079 | 37212 ft | 425 kts | 91° |
| 2026-03-23 10:30 | 55.58852 | 44.08554 | 37207 ft | 426 kts | 92° |
| 2026-03-23 10:30 | 55.58622 | 44.19030 | 37213 ft | 427 kts | 92° |
| 2026-03-23 10:31 | 55.58386 | 44.29541 | 37214 ft | 428 kts | 92° |
| 2026-03-23 10:31 | 55.58146 | 44.39991 | 37217 ft | 428 kts | 92° |
| 2026-03-23 10:32 | 55.57900 | 44.50499 | 37224 ft | 428 kts | 92° |
| 2026-03-23 10:32 | 55.57640 | 44.61044 | 37234 ft | 428 kts | 92° |
| 2026-03-23 10:33 | 55.57366 | 44.71550 | 37239 ft | 428 kts | 92° |
| 2026-03-23 10:33 | 55.56652 | 44.81983 | 37237 ft | 429 kts | 106° |
| 2026-03-23 10:34 | 55.54031 | 44.91416 | 37226 ft | 432 kts | 126° |
| 2026-03-23 10:34 | 55.49833 | 44.99035 | 37223 ft | 434 kts | 136° |
| 2026-03-23 10:35 | 55.45387 | 45.06273 | 37225 ft | 435 kts | 135° |
| 2026-03-23 10:35 | 55.40935 | 45.13510 | 37225 ft | 435 kts | 135° |
| 2026-03-23 10:36 | 55.36501 | 45.20693 | 37225 ft | 436 kts | 135° |
| 2026-03-23 10:36 | 55.32030 | 45.27921 | 37243 ft | 435 kts | 135° |
| 2026-03-23 10:37 | 55.27568 | 45.35116 | 37252 ft | 435 kts | 136° |
| 2026-03-23 10:37 | 55.23133 | 45.42242 | 37247 ft | 434 kts | 135° |
| 2026-03-23 10:38 | 55.18660 | 45.49401 | 37245 ft | 434 kts | 135° |
| 2026-03-23 10:38 | 55.14213 | 45.56488 | 37245 ft | 434 kts | 135° |
| 2026-03-23 10:39 | 55.09739 | 45.63588 | 37245 ft | 434 kts | 135° |
| 2026-03-23 10:39 | 55.06026 | 45.69472 | 37241 ft | 433 kts | 135° |
| 2026-03-23 10:40 | 55.01549 | 45.76547 | 37241 ft | 434 kts | 135° |
| 2026-03-23 10:40 | 54.97066 | 45.83598 | 37239 ft | 434 kts | 135° |
| 2026-03-23 10:41 | 54.92575 | 45.90646 | 37240 ft | 435 kts | 135° |
| 2026-03-23 10:41 | 54.88073 | 45.97691 | 37241 ft | 435 kts | 135° |
| 2026-03-23 10:42 | 54.83599 | 46.04663 | 37249 ft | 435 kts | 135° |
| 2026-03-23 10:42 | 54.79096 | 46.11664 | 37240 ft | 435 kts | 136° |
| 2026-03-23 10:43 | 54.74445 | 46.18405 | 37236 ft | 436 kts | 139° |
| 2026-03-23 10:43 | 54.69644 | 46.24872 | 37239 ft | 437 kts | 140° |
| 2026-03-23 10:44 | 54.64840 | 46.31324 | 37240 ft | 437 kts | 139° |
| 2026-03-23 10:44 | 54.60075 | 46.37847 | 37241 ft | 437 kts | 138° |
| 2026-03-23 10:45 | 54.55322 | 46.44389 | 37242 ft | 437 kts | 138° |
| 2026-03-23 10:45 | 54.50583 | 46.50865 | 37245 ft | 437 kts | 139° |
| 2026-03-23 10:46 | 54.45805 | 46.57351 | 37248 ft | 437 kts | 139° |
| 2026-03-23 10:46 | 54.41020 | 46.63831 | 37252 ft | 437 kts | 138° |
| 2026-03-23 10:47 | 54.36237 | 46.70294 | 37244 ft | 438 kts | 138° |
| 2026-03-23 10:47 | 54.31441 | 46.76733 | 37242 ft | 438 kts | 139° |
| 2026-03-23 10:48 | 54.26796 | 46.83363 | 37242 ft | 434 kts | 129° |
| 2026-03-23 10:48 | 54.23384 | 46.91734 | 37238 ft | 426 kts | 112° |
| 2026-03-23 10:49 | 54.21182 | 47.01102 | 37237 ft | 424 kts | 108° |
| 2026-03-23 10:49 | 54.19028 | 47.10438 | 37236 ft | 425 kts | 109° |
| 2026-03-23 10:50 | 54.16842 | 47.19839 | 37235 ft | 425 kts | 109° |
| 2026-03-23 10:50 | 54.14658 | 47.29228 | 37238 ft | 425 kts | 109° |
| 2026-03-23 10:51 | 54.12485 | 47.38580 | 37237 ft | 425 kts | 109° |
| 2026-03-23 10:51 | 54.10284 | 47.47954 | 37224 ft | 425 kts | 109° |
| 2026-03-23 10:52 | 54.08086 | 47.57277 | 37240 ft | 425 kts | 109° |
| 2026-03-23 10:52 | 54.05878 | 47.66625 | 37243 ft | 424 kts | 109° |
| 2026-03-23 10:53 | 54.03681 | 47.75891 | 37244 ft | 424 kts | 109° |
| 2026-03-23 10:53 | 54.01449 | 47.85192 | 37244 ft | 424 kts | 109° |
| 2026-03-23 10:54 | 53.99227 | 47.94442 | 37242 ft | 424 kts | 109° |
| 2026-03-23 10:54 | 53.97005 | 48.03714 | 37246 ft | 424 kts | 109° |
| 2026-03-23 10:55 | 53.94768 | 48.12998 | 37240 ft | 424 kts | 109° |
| 2026-03-23 10:55 | 53.92519 | 48.22275 | 37236 ft | 424 kts | 109° |
| 2026-03-23 10:56 | 53.90261 | 48.31550 | 37240 ft | 425 kts | 109° |
| 2026-03-23 10:56 | 53.87994 | 48.40810 | 37240 ft | 425 kts | 109° |
| 2026-03-23 10:57 | 53.85767 | 48.49854 | 37248 ft | 425 kts | 109° |
| 2026-03-23 10:57 | 53.83484 | 48.59082 | 37247 ft | 425 kts | 109° |
| 2026-03-23 10:58 | 53.81199 | 48.68318 | 37247 ft | 424 kts | 109° |
| 2026-03-23 10:58 | 53.78927 | 48.77470 | 37248 ft | 424 kts | 109° |
| 2026-03-23 10:59 | 53.76645 | 48.86681 | 37247 ft | 423 kts | 106° |
| 2026-03-23 10:59 | 53.74833 | 48.96126 | 37248 ft | 422 kts | 104° |
| 2026-03-23 11:00 | 53.73046 | 49.05569 | 37260 ft | 422 kts | 104° |
| 2026-03-23 11:00 | 53.71248 | 49.14999 | 37261 ft | 421 kts | 104° |
| 2026-03-23 11:01 | 53.69449 | 49.24346 | 37258 ft | 422 kts | 104° |
| 2026-03-23 11:01 | 53.67629 | 49.33780 | 37247 ft | 422 kts | 104° |
| 2026-03-23 11:02 | 53.65795 | 49.43196 | 37244 ft | 423 kts | 104° |
| 2026-03-23 11:03 | 53.63027 | 49.57343 | 37252 ft | 423 kts | 104° |
| 2026-03-23 11:03 | 53.61199 | 49.66685 | 37250 ft | 423 kts | 104° |
| 2026-03-23 11:04 | 53.59348 | 49.76084 | 37253 ft | 423 kts | 104° |
| 2026-03-23 11:04 | 53.57483 | 49.85475 | 37255 ft | 423 kts | 104° |
| 2026-03-23 11:05 | 53.55606 | 49.94854 | 37257 ft | 423 kts | 104° |
| 2026-03-23 11:05 | 53.53729 | 50.04227 | 37257 ft | 423 kts | 104° |
| 2026-03-23 11:06 | 53.51856 | 50.13544 | 37265 ft | 423 kts | 104° |
| 2026-03-23 11:06 | 53.49828 | 50.22846 | 37263 ft | 425 kts | 108° |
| 2026-03-23 11:07 | 53.47417 | 50.31944 | 37258 ft | 426 kts | 110° |
| 2026-03-23 11:07 | 53.44914 | 50.40966 | 37258 ft | 426 kts | 110° |
| 2026-03-23 11:08 | 53.42470 | 50.50013 | 37251 ft | 425 kts | 109° |
| 2026-03-23 11:08 | 53.40086 | 50.59021 | 37266 ft | 425 kts | 109° |
| 2026-03-23 11:09 | 53.37680 | 50.68091 | 37261 ft | 425 kts | 109° |
| 2026-03-23 11:09 | 53.35254 | 50.77129 | 37258 ft | 426 kts | 109° |
| 2026-03-23 11:10 | 53.32819 | 50.86158 | 37256 ft | 426 kts | 109° |
| 2026-03-23 11:10 | 53.30378 | 50.95187 | 37255 ft | 425 kts | 109° |
| 2026-03-23 11:11 | 53.27951 | 51.04147 | 37265 ft | 425 kts | 109° |
| 2026-03-23 11:11 | 53.25495 | 51.13171 | 37264 ft | 425 kts | 109° |
| 2026-03-23 11:12 | 53.23037 | 51.22166 | 37261 ft | 425 kts | 109° |
| 2026-03-23 11:12 | 53.20569 | 51.31140 | 37257 ft | 425 kts | 109° |
| 2026-03-23 11:13 | 53.18093 | 51.40110 | 37255 ft | 425 kts | 109° |
| 2026-03-23 11:13 | 53.15627 | 51.49017 | 37266 ft | 425 kts | 109° |
| 2026-03-23 11:14 | 53.13140 | 51.57983 | 37271 ft | 426 kts | 109° |
| 2026-03-23 11:14 | 53.10650 | 51.66929 | 37264 ft | 426 kts | 109° |
| 2026-03-23 11:15 | 53.08149 | 51.75874 | 37258 ft | 426 kts | 109° |
| 2026-03-23 11:15 | 53.05642 | 51.84796 | 37255 ft | 426 kts | 109° |
| 2026-03-23 11:16 | 53.03122 | 51.93716 | 37252 ft | 426 kts | 109° |
| 2026-03-23 11:16 | 53.00600 | 52.02624 | 37261 ft | 426 kts | 109° |
| 2026-03-23 11:17 | 52.98084 | 52.11476 | 37261 ft | 426 kts | 109° |
| 2026-03-23 11:17 | 52.95549 | 52.20367 | 37256 ft | 426 kts | 109° |
| 2026-03-23 11:18 | 52.92999 | 52.29270 | 37256 ft | 426 kts | 110° |
| 2026-03-23 11:18 | 52.90442 | 52.38136 | 37256 ft | 426 kts | 110° |
| 2026-03-23 11:19 | 52.87874 | 52.47013 | 37278 ft | 426 kts | 110° |
| 2026-03-23 11:19 | 52.85324 | 52.55812 | 37273 ft | 426 kts | 110° |
| 2026-03-23 11:20 | 52.82750 | 52.64667 | 37265 ft | 426 kts | 110° |
| 2026-03-23 11:20 | 52.80171 | 52.73509 | 37270 ft | 427 kts | 109° |
| 2026-03-23 11:21 | 52.77580 | 52.82360 | 37262 ft | 427 kts | 110° |
| 2026-03-23 11:21 | 52.74995 | 52.91139 | 37262 ft | 428 kts | 110° |
| 2026-03-23 11:22 | 52.72381 | 52.99969 | 37271 ft | 428 kts | 110° |
| 2026-03-23 11:22 | 52.70196 | 53.07317 | 37265 ft | 428 kts | 110° |
| 2026-03-23 11:23 | 52.67573 | 53.16131 | 37262 ft | 428 kts | 110° |
| 2026-03-23 11:23 | 52.64938 | 53.24954 | 37261 ft | 428 kts | 110° |
| 2026-03-23 11:24 | 52.62297 | 53.33747 | 37263 ft | 428 kts | 110° |
| 2026-03-23 11:24 | 52.59670 | 53.42489 | 37262 ft | 428 kts | 110° |
| 2026-03-23 11:25 | 52.57021 | 53.51275 | 37256 ft | 429 kts | 110° |
| 2026-03-23 11:25 | 52.54359 | 53.60064 | 37249 ft | 429 kts | 110° |
| 2026-03-23 11:26 | 52.51693 | 53.68833 | 37247 ft | 429 kts | 110° |
| 2026-03-23 11:26 | 52.49010 | 53.77590 | 37252 ft | 429 kts | 110° |
| 2026-03-23 11:27 | 52.46336 | 53.86298 | 37267 ft | 430 kts | 110° |
| 2026-03-23 11:27 | 52.43647 | 53.95070 | 37244 ft | 431 kts | 110° |
| 2026-03-23 11:28 | 52.40940 | 54.03853 | 37234 ft | 431 kts | 110° |
| 2026-03-23 11:28 | 52.38241 | 54.12568 | 37231 ft | 431 kts | 110° |
| 2026-03-23 11:29 | 52.35514 | 54.21339 | 37231 ft | 432 kts | 111° |
| 2026-03-23 11:29 | 52.32776 | 54.30098 | 37240 ft | 432 kts | 111° |
| 2026-03-23 11:30 | 52.29463 | 54.38338 | 37227 ft | 440 kts | 121° |
| 2026-03-23 11:30 | 52.25797 | 54.46356 | 37220 ft | 440 kts | 121° |
| 2026-03-23 11:31 | 52.22127 | 54.54393 | 37219 ft | 441 kts | 121° |
| 2026-03-23 11:31 | 52.18474 | 54.62379 | 37214 ft | 441 kts | 121° |
| 2026-03-23 11:32 | 52.14788 | 54.70386 | 37223 ft | 442 kts | 122° |
| 2026-03-23 11:32 | 52.11098 | 54.78381 | 37213 ft | 442 kts | 121° |
| 2026-03-23 11:33 | 52.07391 | 54.86389 | 37212 ft | 442 kts | 122° |
| 2026-03-23 11:33 | 52.03681 | 54.94377 | 37210 ft | 443 kts | 122° |
| 2026-03-23 11:34 | 51.99981 | 55.02311 | 37225 ft | 443 kts | 122° |
| 2026-03-23 11:34 | 51.96259 | 55.10289 | 37209 ft | 443 kts | 122° |
| 2026-03-23 11:35 | 51.92522 | 55.18279 | 37199 ft | 444 kts | 122° |
| 2026-03-23 11:35 | 51.88777 | 55.26252 | 37199 ft | 444 kts | 122° |
| 2026-03-23 11:36 | 51.85025 | 55.34209 | 37200 ft | 445 kts | 122° |
| 2026-03-23 11:36 | 51.81282 | 55.42120 | 37209 ft | 446 kts | 123° |
| 2026-03-23 11:37 | 51.77468 | 55.50053 | 37191 ft | 448 kts | 124° |
| 2026-03-23 11:37 | 51.73509 | 55.57862 | 37190 ft | 449 kts | 126° |
| 2026-03-23 11:38 | 51.69515 | 55.65621 | 37188 ft | 449 kts | 126° |
| 2026-03-23 11:38 | 51.65541 | 55.73405 | 37203 ft | 450 kts | 126° |
| 2026-03-23 11:39 | 51.61575 | 55.81221 | 37179 ft | 451 kts | 126° |
| 2026-03-23 11:39 | 51.57605 | 55.89013 | 37168 ft | 452 kts | 126° |
| 2026-03-23 11:40 | 51.53592 | 55.96838 | 37170 ft | 453 kts | 126° |
| 2026-03-23 11:40 | 51.49688 | 56.04415 | 37176 ft | 453 kts | 126° |
| 2026-03-23 11:41 | 51.45659 | 56.12229 | 37178 ft | 454 kts | 126° |
| 2026-03-23 11:41 | 51.41629 | 56.20041 | 37179 ft | 454 kts | 126° |
| 2026-03-23 11:42 | 51.37590 | 56.27832 | 37182 ft | 454 kts | 126° |
| 2026-03-23 11:42 | 51.33571 | 56.35558 | 37185 ft | 454 kts | 126° |
| 2026-03-23 11:43 | 51.29508 | 56.43337 | 37179 ft | 455 kts | 127° |
| 2026-03-23 11:43 | 51.25442 | 56.51106 | 37170 ft | 456 kts | 127° |
| 2026-03-23 11:44 | 51.21393 | 56.58836 | 37171 ft | 456 kts | 127° |
| 2026-03-23 11:44 | 51.17300 | 56.66607 | 37169 ft | 457 kts | 127° |
| 2026-03-23 11:45 | 51.13202 | 56.74358 | 37177 ft | 457 kts | 128° |
| 2026-03-23 11:45 | 51.08973 | 56.81977 | 37162 ft | 460 kts | 135° |
| 2026-03-23 11:46 | 51.03707 | 56.87685 | 37159 ft | 464 kts | 153° |
| 2026-03-23 11:46 | 50.97876 | 56.92128 | 37164 ft | 465 kts | 153° |
| 2026-03-23 11:47 | 50.92031 | 56.96569 | 37161 ft | 465 kts | 154° |
| 2026-03-23 11:47 | 50.86187 | 57.01012 | 37160 ft | 466 kts | 154° |
| 2026-03-23 11:48 | 50.77444 | 57.07633 | 37163 ft | 466 kts | 154° |
| 2026-03-23 11:48 | 50.71583 | 57.12062 | 37164 ft | 466 kts | 154° |
| 2026-03-23 11:49 | 50.65713 | 57.16474 | 37157 ft | 466 kts | 154° |
| 2026-03-23 11:49 | 50.59872 | 57.20853 | 37164 ft | 467 kts | 154° |
| 2026-03-23 11:50 | 50.54002 | 57.25255 | 37159 ft | 467 kts | 154° |
| 2026-03-23 11:50 | 50.48121 | 57.29645 | 37148 ft | 467 kts | 155° |
| 2026-03-23 11:51 | 50.42271 | 57.33977 | 37152 ft | 467 kts | 155° |
| 2026-03-23 11:51 | 50.36378 | 57.38343 | 37149 ft | 467 kts | 155° |
| 2026-03-23 11:52 | 50.30499 | 57.42706 | 37139 ft | 467 kts | 155° |
| 2026-03-23 11:52 | 50.24618 | 57.47046 | 37147 ft | 467 kts | 155° |
| 2026-03-23 11:53 | 50.18769 | 57.51345 | 37153 ft | 467 kts | 155° |
| 2026-03-23 11:53 | 50.12880 | 57.55675 | 37153 ft | 467 kts | 155° |
| 2026-03-23 11:54 | 50.06990 | 57.59993 | 37155 ft | 467 kts | 155° |
| 2026-03-23 11:54 | 50.01113 | 57.64286 | 37161 ft | 467 kts | 156° |
| 2026-03-23 11:55 | 49.95226 | 57.68563 | 37165 ft | 466 kts | 156° |
| 2026-03-23 11:55 | 49.89333 | 57.72838 | 37167 ft | 466 kts | 156° |
| 2026-03-23 11:56 | 49.83495 | 57.77060 | 37165 ft | 466 kts | 156° |
| 2026-03-23 11:56 | 49.77613 | 57.81316 | 37166 ft | 466 kts | 156° |
| 2026-03-23 11:57 | 49.71785 | 57.85734 | 37152 ft | 466 kts | 149° |
| 2026-03-23 11:57 | 49.66597 | 57.91700 | 37152 ft | 467 kts | 143° |
| 2026-03-23 11:58 | 49.61464 | 57.97893 | 37143 ft | 468 kts | 143° |
| 2026-03-23 11:58 | 49.56323 | 58.04077 | 37139 ft | 468 kts | 143° |
| 2026-03-23 11:59 | 49.51217 | 58.10222 | 37141 ft | 468 kts | 143° |
| 2026-03-23 11:59 | 49.46074 | 58.16387 | 37137 ft | 468 kts | 144° |
| 2026-03-23 12:00 | 49.40918 | 58.22529 | 37129 ft | 468 kts | 144° |
| 2026-03-23 12:00 | 49.35791 | 58.28609 | 37131 ft | 468 kts | 144° |
| 2026-03-23 12:01 | 49.30636 | 58.34718 | 37132 ft | 468 kts | 144° |
| 2026-03-23 12:01 | 49.25469 | 58.40844 | 37128 ft | 468 kts | 144° |
| 2026-03-23 12:02 | 49.20309 | 58.46939 | 37130 ft | 468 kts | 144° |
| 2026-03-23 12:02 | 49.16021 | 58.51988 | 37129 ft | 468 kts | 144° |
| 2026-03-23 12:03 | 49.10026 | 58.59042 | 37124 ft | 468 kts | 144° |
| 2026-03-23 12:03 | 49.04874 | 58.65089 | 37126 ft | 467 kts | 144° |
| 2026-03-23 12:04 | 48.99718 | 58.71109 | 37132 ft | 466 kts | 144° |
| 2026-03-23 12:04 | 48.94559 | 58.77116 | 37137 ft | 466 kts | 144° |
| 2026-03-23 12:05 | 48.89402 | 58.83097 | 37140 ft | 466 kts | 144° |
| 2026-03-23 12:05 | 48.84249 | 58.89069 | 37147 ft | 465 kts | 144° |
| 2026-03-23 12:06 | 48.79976 | 58.94010 | 37151 ft | 464 kts | 144° |
| 2026-03-23 12:06 | 48.74001 | 59.00902 | 37158 ft | 464 kts | 144° |
| 2026-03-23 12:07 | 48.69727 | 59.05815 | 37148 ft | 463 kts | 144° |
| 2026-03-23 12:07 | 48.64587 | 59.11702 | 37157 ft | 462 kts | 144° |
| 2026-03-23 12:08 | 48.59460 | 59.17571 | 37156 ft | 462 kts | 144° |
| 2026-03-23 12:08 | 48.54330 | 59.23416 | 37159 ft | 461 kts | 144° |
| 2026-03-23 12:09 | 48.49197 | 59.29249 | 37163 ft | 461 kts | 144° |
| 2026-03-23 12:09 | 48.44089 | 59.35037 | 37166 ft | 460 kts | 144° |
| 2026-03-23 12:10 | 48.38966 | 59.40837 | 37165 ft | 460 kts | 144° |
| 2026-03-23 12:10 | 48.33840 | 59.46623 | 37162 ft | 460 kts | 144° |
| 2026-03-23 12:11 | 48.28747 | 59.52361 | 37162 ft | 459 kts | 144° |
| 2026-03-23 12:11 | 48.23630 | 59.58118 | 37161 ft | 458 kts | 144° |
| 2026-03-23 12:12 | 48.18517 | 59.63845 | 37160 ft | 458 kts | 144° |
| 2026-03-23 12:12 | 48.13428 | 59.69532 | 37151 ft | 458 kts | 144° |
| 2026-03-23 12:13 | 48.08309 | 59.75234 | 37154 ft | 458 kts | 144° |
| 2026-03-23 12:13 | 48.03192 | 59.80915 | 37155 ft | 457 kts | 144° |
| 2026-03-23 12:14 | 47.98115 | 59.86538 | 37152 ft | 457 kts | 144° |
| 2026-03-23 12:14 | 47.92997 | 59.92192 | 37151 ft | 457 kts | 144° |
| 2026-03-23 12:15 | 47.87878 | 59.97855 | 37151 ft | 457 kts | 144° |
| 2026-03-23 12:15 | 47.82755 | 60.03494 | 37147 ft | 457 kts | 144° |
| 2026-03-23 12:16 | 47.77623 | 60.09117 | 37151 ft | 457 kts | 144° |
| 2026-03-23 12:16 | 47.72529 | 60.14694 | 37148 ft | 457 kts | 144° |
| 2026-03-23 12:17 | 47.67410 | 60.20288 | 37155 ft | 457 kts | 144° |
| 2026-03-23 12:17 | 47.62286 | 60.25872 | 37148 ft | 457 kts | 144° |
| 2026-03-23 12:18 | 47.57160 | 60.31435 | 37150 ft | 457 kts | 144° |
| 2026-03-23 12:18 | 47.52026 | 60.37000 | 37153 ft | 457 kts | 144° |
| 2026-03-23 12:19 | 47.46894 | 60.42560 | 37151 ft | 457 kts | 144° |
| 2026-03-23 12:19 | 47.41799 | 60.48075 | 37153 ft | 456 kts | 144° |
| 2026-03-23 12:20 | 47.36662 | 60.53605 | 37150 ft | 456 kts | 144° |
| 2026-03-23 12:20 | 47.31522 | 60.59109 | 37150 ft | 456 kts | 144° |
| 2026-03-23 12:21 | 47.26428 | 60.64559 | 37151 ft | 455 kts | 144° |
| 2026-03-23 12:21 | 47.21299 | 60.70041 | 37144 ft | 455 kts | 145° |
| 2026-03-23 12:22 | 47.16170 | 60.75517 | 37148 ft | 455 kts | 145° |
| 2026-03-23 12:22 | 47.11032 | 60.80978 | 37148 ft | 455 kts | 145° |
| 2026-03-23 12:23 | 47.05893 | 60.86427 | 37148 ft | 455 kts | 145° |
| 2026-03-23 12:23 | 47.00788 | 60.91830 | 37148 ft | 455 kts | 145° |
| 2026-03-23 12:24 | 46.95642 | 60.97263 | 37144 ft | 455 kts | 145° |
| 2026-03-23 12:25 | 46.87922 | 61.05384 | 37146 ft | 455 kts | 145° |
| 2026-03-23 12:25 | 46.82773 | 61.10783 | 37141 ft | 456 kts | 146° |
| 2026-03-23 12:26 | 46.77614 | 61.16185 | 37142 ft | 456 kts | 146° |
| 2026-03-23 12:26 | 46.72459 | 61.21568 | 37138 ft | 456 kts | 146° |
| 2026-03-23 12:27 | 46.64743 | 61.29605 | 37140 ft | 456 kts | 146° |
| 2026-03-23 12:27 | 46.59578 | 61.34974 | 37142 ft | 456 kts | 146° |
| 2026-03-23 12:28 | 46.54409 | 61.40329 | 37143 ft | 456 kts | 146° |
| 2026-03-23 12:28 | 46.49223 | 61.45675 | 37140 ft | 456 kts | 146° |
| 2026-03-23 12:29 | 46.44038 | 61.51012 | 37141 ft | 456 kts | 146° |
| 2026-03-23 12:29 | 46.38892 | 61.56304 | 37143 ft | 456 kts | 146° |
| 2026-03-23 12:30 | 46.33712 | 61.61626 | 37145 ft | 456 kts | 146° |
| 2026-03-23 12:30 | 46.28529 | 61.66924 | 37146 ft | 456 kts | 146° |
| 2026-03-23 12:31 | 46.23330 | 61.72228 | 37149 ft | 456 kts | 146° |
| 2026-03-23 12:31 | 46.18175 | 61.77477 | 37148 ft | 456 kts | 146° |
| 2026-03-23 12:32 | 46.12964 | 61.82749 | 37141 ft | 456 kts | 147° |
| 2026-03-23 12:32 | 46.07768 | 61.88000 | 37142 ft | 456 kts | 146° |
| 2026-03-23 12:33 | 46.02563 | 61.93254 | 37140 ft | 456 kts | 147° |
| 2026-03-23 12:33 | 45.97358 | 61.98491 | 37141 ft | 457 kts | 147° |
| 2026-03-23 12:34 | 45.92171 | 62.03689 | 37135 ft | 457 kts | 147° |
| 2026-03-23 12:34 | 45.86951 | 62.08908 | 37133 ft | 457 kts | 147° |
| 2026-03-23 12:35 | 45.82044 | 62.14719 | 37133 ft | 460 kts | 133° |
| 2026-03-23 12:35 | 45.78009 | 62.21848 | 37133 ft | 460 kts | 130° |
| 2026-03-23 12:36 | 45.73986 | 62.28990 | 37144 ft | 461 kts | 130° |
| 2026-03-23 12:36 | 45.69955 | 62.36115 | 37143 ft | 461 kts | 130° |
| 2026-03-23 12:37 | 45.65914 | 62.43241 | 37143 ft | 461 kts | 130° |
| 2026-03-23 12:37 | 45.61902 | 62.50314 | 37143 ft | 461 kts | 130° |
| 2026-03-23 12:38 | 45.57853 | 62.57432 | 37139 ft | 461 kts | 130° |
| 2026-03-23 12:38 | 45.53807 | 62.64537 | 37139 ft | 461 kts | 130° |
| 2026-03-23 12:39 | 45.49756 | 62.71631 | 37134 ft | 461 kts | 130° |
| 2026-03-23 12:39 | 45.45685 | 62.78733 | 37135 ft | 462 kts | 130° |
| 2026-03-23 12:40 | 45.41618 | 62.85825 | 37136 ft | 462 kts | 130° |
| 2026-03-23 12:40 | 45.37564 | 62.92866 | 37139 ft | 462 kts | 130° |
| 2026-03-23 12:41 | 45.33479 | 62.99937 | 37132 ft | 462 kts | 130° |
| 2026-03-23 12:41 | 45.29378 | 63.06992 | 37133 ft | 463 kts | 131° |
| 2026-03-23 12:42 | 45.25270 | 63.14053 | 37140 ft | 463 kts | 130° |
| 2026-03-23 12:42 | 45.21190 | 63.21068 | 37142 ft | 463 kts | 131° |
| 2026-03-23 12:43 | 45.17078 | 63.28125 | 37135 ft | 463 kts | 130° |
| 2026-03-23 12:43 | 45.12960 | 63.35179 | 37144 ft | 464 kts | 131° |
| 2026-03-23 12:44 | 45.08842 | 63.42208 | 37148 ft | 463 kts | 131° |
| 2026-03-23 12:44 | 45.04738 | 63.49195 | 37147 ft | 463 kts | 131° |
| 2026-03-23 12:45 | 45.00611 | 63.56200 | 37151 ft | 463 kts | 131° |
| 2026-03-23 12:45 | 44.96476 | 63.63187 | 37148 ft | 463 kts | 131° |
| 2026-03-23 12:46 | 44.92339 | 63.70171 | 37151 ft | 463 kts | 131° |
| 2026-03-23 12:46 | 44.88197 | 63.77147 | 37142 ft | 463 kts | 131° |
| 2026-03-23 12:47 | 44.84077 | 63.84076 | 37141 ft | 464 kts | 131° |
| 2026-03-23 12:47 | 44.79919 | 63.91036 | 37141 ft | 464 kts | 131° |
| 2026-03-23 12:48 | 44.75753 | 63.98001 | 37142 ft | 464 kts | 131° |
| 2026-03-23 12:48 | 44.71581 | 64.04958 | 37131 ft | 465 kts | 131° |
| 2026-03-23 12:49 | 44.67424 | 64.11856 | 37142 ft | 465 kts | 131° |
| 2026-03-23 12:49 | 44.63237 | 64.18814 | 37144 ft | 466 kts | 131° |
| 2026-03-23 12:50 | 44.59760 | 64.24593 | 37143 ft | 466 kts | 131° |
| 2026-03-23 12:50 | 44.55558 | 64.31528 | 37143 ft | 466 kts | 131° |
| 2026-03-23 12:51 | 44.51353 | 64.38454 | 37149 ft | 466 kts | 131° |
| 2026-03-23 12:51 | 44.47142 | 64.45378 | 37155 ft | 466 kts | 131° |
| 2026-03-23 12:52 | 44.42949 | 64.52238 | 37150 ft | 466 kts | 131° |
| 2026-03-23 12:52 | 44.38722 | 64.59141 | 37147 ft | 466 kts | 131° |
| 2026-03-23 12:53 | 44.34505 | 64.66026 | 37145 ft | 466 kts | 131° |
| 2026-03-23 12:53 | 44.30314 | 64.72876 | 37143 ft | 466 kts | 131° |
| 2026-03-23 12:54 | 44.26094 | 64.79746 | 37151 ft | 466 kts | 132° |
| 2026-03-23 12:54 | 44.21858 | 64.86607 | 37150 ft | 466 kts | 132° |
| 2026-03-23 12:55 | 44.17618 | 64.93449 | 37163 ft | 466 kts | 132° |
| 2026-03-23 12:55 | 44.13402 | 65.00241 | 37144 ft | 466 kts | 132° |
| 2026-03-23 12:56 | 44.09157 | 65.07072 | 37144 ft | 466 kts | 132° |
| 2026-03-23 12:56 | 44.04903 | 65.13907 | 37141 ft | 467 kts | 132° |
| 2026-03-23 12:57 | 44.00665 | 65.20688 | 37148 ft | 467 kts | 132° |
| 2026-03-23 12:57 | 43.96399 | 65.27495 | 37136 ft | 467 kts | 132° |
| 2026-03-23 12:58 | 43.92125 | 65.34310 | 37153 ft | 467 kts | 132° |
| 2026-03-23 12:58 | 43.87841 | 65.41114 | 37144 ft | 467 kts | 132° |
| 2026-03-23 12:59 | 43.83563 | 65.47884 | 37134 ft | 467 kts | 132° |
| 2026-03-23 12:59 | 43.79287 | 65.54657 | 37147 ft | 467 kts | 132° |
| 2026-03-23 13:00 | 43.75037 | 65.61382 | 37133 ft | 467 kts | 132° |
| 2026-03-23 13:01 | 43.68603 | 65.71503 | 37133 ft | 467 kts | 133° |
| 2026-03-23 13:01 | 43.64295 | 65.78260 | 37128 ft | 467 kts | 133° |
| 2026-03-23 13:02 | 43.59982 | 65.85001 | 37127 ft | 468 kts | 133° |
| 2026-03-23 13:02 | 43.55697 | 65.91687 | 37137 ft | 468 kts | 133° |
| 2026-03-23 13:03 | 43.51369 | 65.98425 | 37131 ft | 468 kts | 133° |
| 2026-03-23 13:03 | 43.47041 | 66.05148 | 37132 ft | 468 kts | 133° |
| 2026-03-23 13:04 | 43.42710 | 66.11860 | 37133 ft | 468 kts | 133° |
| 2026-03-23 13:04 | 43.38399 | 66.18528 | 37118 ft | 469 kts | 133° |
| 2026-03-23 13:05 | 43.34054 | 66.25249 | 37115 ft | 469 kts | 133° |
| 2026-03-23 13:05 | 43.29727 | 66.31918 | 37132 ft | 469 kts | 133° |
| 2026-03-23 13:06 | 43.25380 | 66.38585 | 37118 ft | 469 kts | 133° |
| 2026-03-23 13:06 | 43.21027 | 66.45255 | 37126 ft | 469 kts | 133° |
| 2026-03-23 13:07 | 43.16699 | 66.51888 | 37119 ft | 469 kts | 133° |
| 2026-03-23 13:07 | 43.12341 | 66.58539 | 37121 ft | 469 kts | 134° |
| 2026-03-23 13:08 | 43.07977 | 66.65177 | 37101 ft | 469 kts | 134° |
| 2026-03-23 13:08 | 43.03607 | 66.71817 | 37103 ft | 470 kts | 134° |
| 2026-03-23 13:09 | 42.99220 | 66.78462 | 37105 ft | 470 kts | 134° |
| 2026-03-23 13:09 | 42.94830 | 66.85090 | 37103 ft | 470 kts | 134° |
| 2026-03-23 13:10 | 42.90447 | 66.91677 | 37097 ft | 471 kts | 134° |
| 2026-03-23 13:10 | 42.86041 | 66.98303 | 37099 ft | 471 kts | 134° |
| 2026-03-23 13:11 | 42.81638 | 67.04925 | 37096 ft | 471 kts | 134° |
| 2026-03-23 13:11 | 42.77256 | 67.11491 | 37104 ft | 471 kts | 134° |
| 2026-03-23 13:12 | 42.72835 | 67.18090 | 37116 ft | 471 kts | 134° |
| 2026-03-23 13:12 | 42.68407 | 67.24684 | 37112 ft | 470 kts | 134° |
| 2026-03-23 13:13 | 42.63984 | 67.31253 | 37102 ft | 470 kts | 135° |
| 2026-03-23 13:13 | 42.59593 | 67.37762 | 37104 ft | 470 kts | 135° |
| 2026-03-23 13:14 | 42.55167 | 67.44304 | 37102 ft | 470 kts | 135° |
| 2026-03-23 13:14 | 42.50739 | 67.50840 | 37079 ft | 470 kts | 135° |
| 2026-03-23 13:15 | 42.46331 | 67.57335 | 37096 ft | 470 kts | 135° |
| 2026-03-23 13:15 | 42.41894 | 67.63863 | 37101 ft | 470 kts | 135° |
| 2026-03-23 13:16 | 42.37461 | 67.70380 | 37084 ft | 470 kts | 135° |
| 2026-03-23 13:16 | 42.33048 | 67.76852 | 37086 ft | 470 kts | 135° |
| 2026-03-23 13:17 | 42.28601 | 67.83343 | 37087 ft | 470 kts | 135° |
| 2026-03-23 13:17 | 42.24138 | 67.89836 | 37089 ft | 471 kts | 135° |
| 2026-03-23 13:18 | 42.19689 | 67.96319 | 37088 ft | 471 kts | 135° |
| 2026-03-23 13:18 | 42.15258 | 68.02762 | 37089 ft | 471 kts | 135° |
| 2026-03-23 13:19 | 42.10790 | 68.09226 | 37092 ft | 471 kts | 135° |
| 2026-03-23 13:19 | 42.06314 | 68.15694 | 37071 ft | 472 kts | 135° |
| 2026-03-23 13:20 | 42.01804 | 68.22172 | 37091 ft | 473 kts | 136° |
| 2026-03-23 13:20 | 41.97240 | 68.28482 | 37098 ft | 473 kts | 137° |
| 2026-03-23 13:21 | 41.92598 | 68.34761 | 37090 ft | 472 kts | 137° |
| 2026-03-23 13:21 | 41.87953 | 68.41064 | 36045 ft | 477 kts | 137° |
| 2026-03-23 13:21 | 41.85603 | 68.44272 | 34535 ft | 484 kts | 136° |
| 2026-03-23 13:22 | 41.83289 | 68.47442 | 33405 ft | 477 kts | 136° |
| 2026-03-23 13:22 | 41.80984 | 68.50603 | 32386 ft | 468 kts | 136° |
| 2026-03-23 13:22 | 41.78729 | 68.53690 | 31452 ft | 457 kts | 136° |
| 2026-03-23 13:22 | 41.76529 | 68.56694 | 30626 ft | 445 kts | 136° |
| 2026-03-23 13:23 | 41.74388 | 68.59630 | 29795 ft | 433 kts | 134° |
| 2026-03-23 13:23 | 41.72482 | 68.62550 | 29420 ft | 412 kts | 132° |
| 2026-03-23 13:23 | 41.70649 | 68.65441 | 28679 ft | 402 kts | 132° |
| 2026-03-23 13:23 | 41.68860 | 68.68275 | 27839 ft | 396 kts | 132° |
| 2026-03-23 13:24 | 41.67098 | 68.71069 | 26995 ft | 391 kts | 132° |
| 2026-03-23 13:24 | 41.65351 | 68.73843 | 26172 ft | 387 kts | 132° |
| 2026-03-23 13:24 | 41.63533 | 68.76458 | 25354 ft | 380 kts | 143° |
| 2026-03-23 13:24 | 41.61328 | 68.78293 | 24562 ft | 370 kts | 160° |
| 2026-03-23 13:25 | 41.60144 | 68.78945 | 24250 ft | 366 kts | 160° |
| 2026-03-23 13:25 | 41.57810 | 68.80201 | 23620 ft | 358 kts | 161° |
| 2026-03-23 13:25 | 41.55506 | 68.81430 | 22817 ft | 353 kts | 161° |
| 2026-03-23 13:25 | 41.53264 | 68.82620 | 22046 ft | 350 kts | 161° |
| 2026-03-23 13:26 | 41.51009 | 68.83822 | 21287 ft | 346 kts | 161° |
| 2026-03-23 13:26 | 41.48782 | 68.85007 | 20568 ft | 343 kts | 161° |
| 2026-03-23 13:26 | 41.46568 | 68.86184 | 19855 ft | 340 kts | 161° |
| 2026-03-23 13:26 | 41.44376 | 68.87353 | 19153 ft | 338 kts | 161° |
| 2026-03-23 13:27 | 41.42199 | 68.88512 | 18485 ft | 335 kts | 161° |
| 2026-03-23 13:27 | 41.40044 | 68.89658 | 17751 ft | 332 kts | 161° |
| 2026-03-23 13:27 | 41.37901 | 68.90795 | 17030 ft | 329 kts | 161° |
| 2026-03-23 13:27 | 41.35805 | 68.91905 | 16366 ft | 327 kts | 161° |
| 2026-03-23 13:28 | 41.33702 | 68.93018 | 15711 ft | 324 kts | 161° |
| 2026-03-23 13:28 | 41.31608 | 68.94093 | 14977 ft | 322 kts | 167° |
| 2026-03-23 13:28 | 41.29413 | 68.94369 | 14227 ft | 315 kts | 192° |
| 2026-03-23 13:28 | 41.27391 | 68.93445 | 13503 ft | 304 kts | 216° |
| 2026-03-23 13:29 | 41.25936 | 68.91527 | 13035 ft | 285 kts | 241° |
| 2026-03-23 13:29 | 41.25206 | 68.89212 | 12898 ft | 261 kts | 259° |
| 2026-03-23 13:29 | 41.24870 | 68.86934 | 12757 ft | 242 kts | 262° |
| 2026-03-23 13:29 | 41.24606 | 68.84804 | 12598 ft | 226 kts | 263° |
| 2026-03-23 13:30 | 41.24360 | 68.82757 | 12160 ft | 221 kts | 263° |
| 2026-03-23 13:30 | 41.24125 | 68.80795 | 11685 ft | 215 kts | 263° |
| 2026-03-23 13:30 | 41.23894 | 68.78854 | 11200 ft | 210 kts | 263° |
| 2026-03-23 13:30 | 41.23671 | 68.76947 | 10737 ft | 207 kts | 263° |
| 2026-03-23 13:31 | 41.23406 | 68.75097 | 10268 ft | 200 kts | 251° |
| 2026-03-23 13:31 | 41.22559 | 68.73691 | 9785 ft | 197 kts | 212° |
| 2026-03-23 13:31 | 41.21253 | 68.73257 | 9279 ft | 196 kts | 179° |
| 2026-03-23 13:31 | 41.19984 | 68.73799 | 8833 ft | 190 kts | 146° |
| 2026-03-23 13:32 | 41.19143 | 68.75073 | 8568 ft | 180 kts | 115° |
| 2026-03-23 13:32 | 41.18896 | 68.76635 | 8340 ft | 169 kts | 84° |
| 2026-03-23 13:32 | 41.19126 | 68.78213 | 8156 ft | 183 kts | 76° |
| 2026-03-23 13:32 | 41.19310 | 68.79318 | 8006 ft | 187 kts | 76° |
| 2026-03-23 13:33 | 41.19687 | 68.81625 | 7705 ft | 198 kts | 77° |
| 2026-03-23 13:33 | 41.19977 | 68.83405 | 7464 ft | 200 kts | 77° |
| 2026-03-23 13:33 | 41.20272 | 68.85221 | 7230 ft | 201 kts | 77° |
| 2026-03-23 13:33 | 41.20566 | 68.87029 | 6996 ft | 200 kts | 77° |
| 2026-03-23 13:34 | 41.20760 | 68.88228 | 6839 ft | 200 kts | 77° |
| 2026-03-23 13:34 | 41.21052 | 68.90027 | 6603 ft | 199 kts | 77° |
| 2026-03-23 13:34 | 41.21342 | 68.91820 | 6360 ft | 198 kts | 77° |
| 2026-03-23 13:34 | 41.21697 | 68.93577 | 6140 ft | 196 kts | 68° |
| 2026-03-23 13:35 | 41.22098 | 68.95314 | 5899 ft | 196 kts | 76° |
| 2026-03-23 13:35 | 41.22359 | 68.97093 | 5646 ft | 195 kts | 79° |
| 2026-03-23 13:35 | 41.22574 | 68.98873 | 5387 ft | 194 kts | 81° |
| 2026-03-23 13:35 | 41.22776 | 69.00641 | 5136 ft | 193 kts | 81° |
| 2026-03-23 13:36 | 41.22973 | 69.02380 | 4885 ft | 192 kts | 81° |
| 2026-03-23 13:36 | 41.23171 | 69.04132 | 4626 ft | 191 kts | 81° |
| 2026-03-23 13:36 | 41.23366 | 69.05871 | 4371 ft | 190 kts | 81° |
| 2026-03-23 13:36 | 41.23555 | 69.07547 | 4120 ft | 177 kts | 82° |
| 2026-03-23 13:37 | 41.23729 | 69.09094 | 3911 ft | 162 kts | 82° |
| 2026-03-23 13:37 | 41.23890 | 69.10529 | 3690 ft | 153 kts | 83° |
| 2026-03-23 13:37 | 41.24044 | 69.11907 | 3495 ft | 149 kts | 83° |
| 2026-03-23 13:37 | 41.24195 | 69.13257 | 3301 ft | 147 kts | 83° |
| 2026-03-23 13:38 | 41.24344 | 69.14589 | 3108 ft | 145 kts | 83° |
| 2026-03-23 13:38 | 41.24491 | 69.15906 | 2917 ft | 144 kts | 83° |
| 2026-03-23 13:38 | 41.24637 | 69.17219 | 2730 ft | 143 kts | 84° |
| 2026-03-23 13:38 | 41.24783 | 69.18526 | 2528 ft | 143 kts | 83° |
| 2026-03-23 13:39 | 41.24927 | 69.19827 | 2346 ft | 141 kts | 83° |
| 2026-03-23 13:39 | 41.25069 | 69.21104 | 2152 ft | 142 kts | 82° |
| 2026-03-23 13:39 | 41.25216 | 69.22424 | 1957 ft | 144 kts | 81° |
| 2026-03-23 13:39 | 41.25371 | 69.23748 | 1766 ft | 145 kts | 82° |
| 2026-03-23 13:40 | 41.25513 | 69.25071 | 1564 ft | 145 kts | 82° |
| 2026-03-23 13:40 | 41.25653 | 69.26378 | 1416 ft | 143 kts | 80° |
| 2026-03-23 13:40 | 41.25778 | 69.27510 | 1405 ft | 74 kts | 83° |
| 2026-03-23 13:40 | 41.25817 | 69.27877 | 1399 ft | 31 kts | 82° |
| 2026-03-23 13:41 | 41.25852 | 69.28159 | 1405 ft | 31 kts | 82° |
| 2026-03-23 13:41 | 41.25883 | 69.28457 | 1395 ft | 33 kts | 82° |
| 2026-03-23 13:41 | 41.25915 | 69.28753 | 1394 ft | 28 kts | 82° |
| 2026-03-23 13:41 | 41.25973 | 69.28892 | 1403 ft | 16 kts | 12° |
| 2026-03-23 13:42 | 41.26074 | 69.28817 | 1385 ft | 18 kts | 317° |
| 2026-03-23 13:42 | 41.26167 | 69.28699 | 1380 ft | 18 kts | 302° |
| 2026-03-23 13:42 | 41.26188 | 69.28529 | 1382 ft | 20 kts | 271° |
| 2026-03-23 13:42 | 41.26187 | 69.28338 | 1382 ft | 21 kts | 263° |
| 2026-03-23 13:43 | 41.26164 | 69.28138 | 1379 ft | 20 kts | 263° |
| 2026-03-23 13:43 | 41.26147 | 69.27969 | 1382 ft | 16 kts | 262° |
| 2026-03-23 13:43 | 41.26129 | 69.27817 | 1382 ft | 18 kts | 258° |
| 2026-03-23 13:43 | 41.26110 | 69.27647 | 1380 ft | 20 kts | 261° |
| 2026-03-23 13:44 | 41.26095 | 69.27497 | 1378 ft | 15 kts | 261° |
| 2026-03-23 13:44 | 41.26074 | 69.27349 | 1381 ft | 17 kts | 258° |
| 2026-03-23 13:44 | 41.26095 | 69.27207 | 1382 ft | 17 kts | 313° |
| 2026-03-23 13:44 | 41.26183 | 69.27102 | 1380 ft | 18 kts | 319° |
| 2026-03-23 13:45 | 41.26251 | 69.27022 | 1380 ft | 11 kts | 313° |
| 2026-03-23 13:45 | 41.26268 | 69.26929 | 1379 ft | 10 kts | 268° |
| 2026-03-23 13:45 | 41.26268 | 69.26917 | 1380 ft | 1 kts | 267° |
| 2026-03-23 13:45 | 41.26267 | 69.26902 | 1377 ft | 1 kts | 267° |
| 2026-03-23 13:46 | 41.26267 | 69.26898 | 1377 ft | 0 kts | 267° |